createdAt,value
2022-09-23T00:00:35.107Z,99.9
2022-09-23T00:02:41.861Z,99.9
2022-09-23T00:04:45.392Z,99.9
2022-09-23T00:06:49.022Z,99.9
2022-09-23T00:08:52.659Z,99.9
2022-09-23T00:10:56.260Z,99.9
2022-09-23T00:12:59.907Z,99.9
2022-09-23T00:15:03.577Z,99.9
2022-09-23T00:17:10.395Z,99.9
2022-09-23T00:19:13.901Z,99.9
2022-09-23T00:21:17.552Z,99.9
2022-09-23T00:23:21.168Z,99.9
2022-09-23T00:27:28.428Z,99.9
2022-09-23T00:29:32.031Z,99.9
2022-09-23T00:31:38.757Z,99.9
2022-09-23T00:33:42.393Z,99.9
2022-09-23T00:35:46.006Z,99.9
2022-09-23T00:37:49.662Z,99.9
2022-09-23T00:39:53.283Z,99.9
2022-09-23T00:41:56.948Z,99.9
2022-09-23T00:44:00.560Z,99.9
2022-09-23T00:46:07.293Z,99.9
2022-09-23T00:48:10.882Z,99.9
2022-09-23T00:51:18.062Z,99.9
2022-09-23T00:53:23.068Z,99.9
2022-09-23T00:55:26.637Z,99.9
2022-09-23T00:57:31.539Z,99.9
2022-09-23T00:59:41.227Z,99.9
2022-09-23T01:01:59.802Z,99.9
2022-09-23T01:03:44.288Z,99.9
2022-09-23T01:05:47.893Z,99.9
2022-09-23T01:07:51.544Z,99.9
2022-09-23T01:09:55.157Z,99.9
2022-09-23T01:11:58.827Z,99.9
2022-09-23T01:14:05.507Z,99.9
2022-09-23T01:16:09.129Z,99.9
2022-09-23T01:18:12.774Z,99.9
2022-09-23T01:20:16.409Z,99.9
2022-09-23T01:22:20.041Z,99.9
2022-09-23T01:24:23.685Z,99.9
2022-09-23T01:26:27.319Z,99.9
2022-09-23T01:28:33.995Z,99.9
2022-09-23T01:30:37.727Z,99.9
2022-09-23T01:32:41.292Z,99.9
2022-09-23T01:36:48.569Z,99.9
2022-09-23T01:38:52.215Z,99.9
2022-09-23T01:43:02.522Z,99.9
2022-09-23T01:45:06.162Z,99.9
2022-09-23T01:47:09.783Z,99.9
2022-09-23T01:48:13.161Z,99.9
2022-09-23T01:50:16.768Z,99.9
2022-09-23T01:52:20.398Z,99.9
2022-09-23T01:54:24.042Z,99.9
2022-09-23T01:56:30.759Z,99.9
2022-09-23T01:58:34.358Z,99.9
2022-09-23T02:00:37.989Z,99.9
2022-09-23T02:02:41.736Z,99.9
2022-09-23T02:04:45.284Z,99.9
2022-09-23T02:06:48.899Z,99.9
2022-09-23T02:08:52.548Z,99.9
2022-09-23T02:13:02.897Z,99.9
2022-09-23T02:15:06.564Z,99.9
2022-09-23T02:17:10.209Z,99.9
2022-09-23T02:19:13.855Z,99.9
2022-09-23T02:21:17.416Z,99.9
2022-09-23T02:23:21.109Z,99.9
2022-09-23T02:25:27.824Z,99.9
2022-09-23T02:29:35.083Z,99.9
2022-09-23T02:31:38.782Z,99.9
2022-09-23T02:33:42.378Z,99.9
2022-09-23T02:35:46.013Z,99.9
2022-09-23T02:37:49.660Z,99.9
2022-09-23T02:39:56.409Z,99.9
2022-09-23T02:42:00.009Z,99.9
2022-09-23T02:44:03.671Z,99.9
2022-09-23T02:48:37.475Z,99.9
2022-09-23T02:50:41.110Z,99.9
2022-09-23T02:52:47.810Z,99.9
2022-09-23T02:54:51.420Z,99.9
2022-09-23T02:56:55.113Z,99.9
2022-09-23T02:58:58.747Z,99.9
2022-09-23T03:01:02.448Z,99.9
2022-09-23T03:03:05.988Z,99.9
2022-09-23T03:05:09.840Z,99.9
2022-09-23T03:07:16.391Z,99.9
2022-09-23T03:09:20.022Z,99.9
2022-09-23T03:11:23.644Z,99.9
2022-09-23T03:13:29.406Z,99.9
2022-09-23T03:17:34.584Z,99.9
2022-09-23T03:19:38.248Z,99.9
2022-09-23T03:21:44.874Z,99.9
2022-09-23T03:23:48.542Z,99.9
2022-09-23T03:25:52.182Z,99.9
2022-09-23T03:27:55.810Z,99.9
2022-09-23T03:29:59.451Z,99.9
2022-09-23T03:32:03.146Z,99.9
2022-09-23T03:34:06.733Z,99.9
2022-09-23T03:36:13.418Z,99.9
2022-09-23T03:38:17.072Z,99.9
2022-09-23T03:40:20.736Z,99.9
2022-09-23T03:41:24.049Z,99.9
2022-09-23T03:43:27.691Z,99.9
2022-09-23T03:49:41.656Z,99.9
2022-09-23T03:51:45.293Z,99.9
2022-09-23T03:53:48.947Z,99.9
2022-09-23T03:59:59.846Z,99.9
2022-09-23T04:04:10.193Z,99.9
2022-09-23T04:06:13.846Z,99.9
2022-09-23T04:08:17.484Z,99.9
2022-09-23T04:10:21.125Z,99.9
2022-09-23T04:14:28.400Z,99.9
2022-09-23T04:16:32.160Z,99.9
2022-09-23T04:18:38.783Z,99.9
2022-09-23T04:20:42.366Z,99.9
2022-09-23T04:24:49.669Z,99.9
2022-09-23T04:26:53.305Z,99.9
2022-09-23T04:28:56.958Z,99.9
2022-09-23T04:31:00.589Z,99.9
2022-09-23T04:33:07.306Z,99.9
2022-09-23T04:35:11.062Z,99.9
2022-09-23T04:37:14.589Z,99.9
2022-09-23T04:40:21.626Z,99.9
2022-09-23T04:42:25.191Z,99.9
2022-09-23T04:44:28.830Z,99.9
2022-09-23T04:46:35.589Z,99.9
2022-09-23T04:48:39.202Z,99.9
2022-09-23T04:50:42.795Z,99.9
2022-09-23T04:52:46.515Z,99.9
2022-09-23T04:54:50.074Z,99.9
2022-09-23T04:56:53.718Z,99.9
2022-09-23T04:58:57.381Z,99.9
2022-09-23T05:01:05.419Z,99.9
2022-09-23T05:03:07.695Z,99.9
2022-09-23T05:05:11.510Z,99.9
2022-09-23T05:07:14.961Z,99.9
2022-09-23T05:09:18.587Z,99.9
2022-09-23T05:11:22.247Z,99.9
2022-09-23T05:13:25.879Z,99.9
2022-09-23T05:15:32.565Z,99.9
2022-09-23T05:17:36.251Z,99.9
2022-09-23T05:19:39.822Z,99.9
2022-09-23T05:21:43.426Z,99.9
2022-09-23T05:23:47.108Z,99.9
2022-09-23T05:25:50.748Z,99.9
2022-09-23T05:27:54.338Z,99.9
2022-09-23T05:32:04.746Z,99.9
2022-09-23T05:34:08.331Z,99.9
2022-09-23T05:35:11.804Z,99.9
2022-09-23T05:37:15.345Z,99.9
2022-09-23T05:39:18.943Z,99.9
2022-09-23T05:43:29.332Z,99.9
2022-09-23T05:45:32.931Z,99.9
2022-09-23T05:47:36.565Z,99.9
2022-09-23T05:49:58.543Z,99.9
2022-09-23T05:51:43.811Z,99.9
2022-09-23T05:53:47.520Z,99.9
2022-09-23T05:55:51.141Z,99.9
2022-09-23T05:57:57.794Z,99.9
2022-09-23T06:00:01.458Z,99.9
2022-09-23T06:02:05.144Z,99.9
2022-09-23T06:04:08.842Z,99.9
2022-09-23T06:06:12.407Z,99.9
2022-09-23T06:08:16.022Z,99.9
2022-09-23T06:10:19.634Z,99.9
2022-09-23T06:12:26.358Z,99.9
2022-09-23T06:18:37.248Z,99.9
2022-09-23T06:20:40.885Z,99.9
2022-09-23T06:22:44.525Z,99.9
2022-09-23T06:24:48.164Z,99.9
2022-09-23T06:26:54.859Z,99.9
2022-09-23T06:28:58.460Z,99.9
2022-09-23T06:31:02.185Z,99.9
2022-09-23T06:33:34.889Z,99.9
2022-09-23T06:35:30.069Z,99.9
2022-09-23T06:37:33.690Z,99.9
2022-09-23T06:41:44.039Z,99.9
2022-09-23T06:47:54.936Z,99.9
2022-09-23T06:49:58.519Z,99.9
2022-09-23T06:52:03.731Z,99.9
2022-09-23T06:54:10.505Z,99.9
2022-09-23T06:56:14.033Z,99.9
2022-09-23T06:58:17.684Z,99.9
2022-09-23T07:00:21.367Z,99.9
2022-09-23T07:02:25.007Z,99.9
2022-09-23T07:04:29.450Z,99.9
2022-09-23T07:06:32.162Z,99.9
2022-09-23T07:08:38.865Z,99.9
2022-09-23T07:10:42.432Z,99.9
2022-09-23T07:12:46.115Z,99.9
2022-09-23T07:14:49.689Z,99.9
2022-09-23T07:16:53.327Z,99.9
2022-09-23T07:18:56.941Z,99.9
2022-09-23T07:21:00.564Z,99.9
2022-09-23T07:23:07.249Z,99.9
2022-09-23T07:27:14.463Z,99.9
2022-09-23T07:28:17.818Z,99.9
2022-09-23T07:30:24.967Z,99.9
2022-09-23T07:32:25.119Z,99.9
2022-09-23T07:34:28.629Z,99.9
2022-09-23T07:36:35.327Z,99.9
2022-09-23T07:38:44.273Z,99.9
2022-09-23T07:40:42.625Z,99.9
2022-09-23T07:42:46.120Z,99.9
2022-09-23T07:44:49.717Z,99.9
2022-09-23T07:48:56.999Z,99.9
2022-09-23T07:51:08.816Z,99.9
2022-09-23T07:53:07.225Z,99.9
2022-09-23T07:55:11.720Z,99.9
2022-09-23T07:57:15.297Z,99.9
2022-09-23T07:59:18.909Z,99.9
2022-09-23T08:01:22.618Z,99.9
2022-09-23T08:03:26.094Z,99.9
2022-09-23T08:05:32.737Z,99.9
2022-09-23T08:07:36.359Z,99.9
2022-09-23T08:09:39.942Z,99.9
2022-09-23T08:11:43.498Z,99.9
2022-09-23T08:13:47.069Z,99.9
2022-09-23T08:15:55.232Z,99.9
2022-09-23T08:17:54.219Z,99.9
2022-09-23T08:20:00.884Z,99.9
2022-09-23T08:22:04.414Z,99.9
2022-09-23T08:24:07.981Z,99.9
2022-09-23T08:25:11.318Z,99.9
2022-09-23T08:27:14.856Z,99.9
2022-09-23T08:29:18.433Z,99.9
2022-09-23T08:31:22.006Z,99.9
2022-09-23T08:33:28.616Z,99.9
2022-09-23T08:35:32.162Z,99.9
2022-09-23T08:37:35.706Z,99.9
2022-09-23T08:39:39.257Z,99.9
2022-09-23T08:41:42.806Z,99.9
2022-09-23T08:43:46.355Z,99.9
2022-09-23T08:45:49.911Z,99.9
2022-09-23T08:47:56.484Z,99.9
2022-09-23T08:50:00.042Z,99.9
2022-09-23T08:52:03.550Z,99.9
2022-09-23T08:54:07.164Z,99.9
2022-09-23T08:56:10.622Z,99.9
2022-09-23T09:00:17.785Z,99.9
2022-09-23T09:02:24.316Z,99.9
2022-09-23T09:04:27.793Z,99.9
2022-09-23T09:06:31.323Z,99.9
2022-09-23T09:08:34.831Z,99.9
2022-09-23T09:10:38.342Z,99.9
2022-09-23T09:12:41.882Z,99.9
2022-09-23T09:14:45.386Z,99.9
2022-09-23T09:16:59.358Z,99.9
2022-09-23T09:18:55.476Z,99.9
2022-09-23T09:20:59.009Z,99.9
2022-09-23T09:22:02.253Z,99.9
2022-09-23T09:24:05.862Z,99.9
2022-09-23T09:26:09.291Z,99.9
2022-09-23T09:28:12.792Z,99.9
2022-09-23T09:30:19.400Z,99.9
2022-09-23T09:32:22.868Z,99.9
2022-09-23T09:34:26.362Z,99.9
2022-09-23T09:36:30.853Z,99.9
2022-09-23T09:38:33.323Z,99.9
2022-09-23T09:40:36.897Z,99.9
2022-09-23T09:42:40.311Z,99.9
2022-09-23T09:44:46.884Z,99.9
2022-09-23T09:46:50.423Z,99.9
2022-09-23T09:48:53.837Z,99.9
2022-09-23T09:50:57.357Z,99.9
2022-09-23T09:53:00.743Z,99.9
2022-09-23T09:57:07.663Z,99.9
2022-09-23T09:59:14.248Z,99.9
2022-09-23T10:05:24.603Z,99.9
2022-09-23T10:07:28.077Z,99.9
2022-09-23T10:11:34.979Z,99.9
2022-09-23T10:13:41.534Z,99.9
2022-09-23T10:15:45.537Z,99.9
2022-09-23T10:17:48.430Z,99.9
2022-09-23T10:20:12.232Z,99.9
2022-09-23T10:22:15.675Z,99.9
2022-09-23T10:24:19.140Z,99.9
2022-09-23T10:26:25.664Z,99.9
2022-09-23T10:28:29.028Z,99.9
2022-09-23T10:30:32.495Z,99.9
2022-09-23T10:32:35.917Z,99.9
2022-09-23T10:34:39.357Z,99.9
2022-09-23T10:36:44.599Z,99.9
2022-09-23T10:38:46.237Z,99.9
2022-09-23T10:40:52.875Z,99.9
2022-09-23T10:42:56.180Z,99.9
2022-09-23T10:44:59.602Z,99.9
2022-09-23T10:49:06.443Z,99.9
2022-09-23T10:51:09.834Z,99.9
2022-09-23T10:53:13.291Z,99.9
2022-09-23T10:55:20.717Z,99.9
2022-09-23T10:57:23.239Z,99.9
2022-09-23T11:03:33.415Z,99.9
2022-09-23T11:09:46.670Z,99.9
2022-09-23T11:11:50.045Z,99.9
2022-09-23T11:14:56.736Z,99.9
2022-09-23T11:17:00.221Z,99.9
2022-09-23T11:19:03.543Z,99.9
2022-09-23T11:23:13.440Z,99.9
2022-09-23T11:29:23.550Z,99.9
2022-09-23T11:35:33.771Z,99.9
2022-09-23T11:39:43.690Z,99.9
2022-09-23T11:43:50.447Z,99.9
2022-09-23T11:45:53.916Z,99.9
2022-09-23T11:47:57.274Z,99.9
2022-09-23T11:52:07.182Z,99.9
2022-09-23T11:56:15.604Z,99.9
2022-09-23T11:58:24.536Z,99.9
2022-09-23T12:11:44.233Z,99.9
2022-09-23T12:13:47.663Z,99.9
2022-09-23T12:15:51.095Z,99.9
2022-09-23T12:17:54.474Z,99.9
2022-09-23T12:20:01.035Z,99.9
2022-09-23T12:22:04.471Z,99.9
2022-09-23T12:24:07.979Z,99.9
2022-09-23T12:28:14.646Z,99.9
2022-09-23T12:30:18.062Z,99.9
2022-09-23T12:32:21.472Z,99.9
2022-09-23T12:34:27.990Z,99.9
2022-09-23T12:36:31.393Z,99.9
2022-09-23T12:38:34.758Z,99.9
2022-09-23T12:40:38.160Z,99.9
2022-09-23T12:44:44.903Z,99.9
2022-09-23T12:46:48.314Z,99.9
2022-09-23T12:48:56.224Z,99.5
2022-09-23T12:53:03.022Z,99.5
2022-09-23T12:55:06.396Z,99.5
2022-09-23T12:57:09.785Z,99.5
2022-09-23T12:59:13.055Z,95.2
2022-09-23T13:01:16.564Z,96.2
2022-09-23T13:03:22.855Z,98.3
2022-09-23T13:05:26.233Z,97.4
2022-09-23T13:08:32.850Z,97.1
2022-09-23T13:14:42.887Z,97.3
2022-09-23T13:16:49.234Z,98.2
2022-09-23T13:18:52.461Z,98.4
2022-09-23T13:20:55.829Z,98.2
2022-09-23T13:22:59.177Z,98.7
2022-09-23T13:25:02.582Z,99.4
2022-09-23T13:27:05.971Z,99.5
2022-09-23T13:29:09.332Z,99.5
2022-09-23T13:31:15.733Z,98.1
2022-09-23T13:33:19.109Z,97.9
2022-09-23T13:35:22.418Z,97.6
2022-09-23T13:37:25.747Z,98.4
2022-09-23T13:39:29.149Z,98.3
2022-09-23T13:41:32.398Z,98.8
2022-09-23T13:43:40.830Z,99.2
2022-09-23T13:45:42.190Z,98.4
2022-09-23T13:47:45.476Z,97.9
2022-09-23T13:49:48.831Z,96.9
2022-09-23T13:51:52.184Z,96.8
2022-09-23T13:53:55.485Z,96.4
2022-09-23T13:55:58.852Z,96.2
2022-09-23T13:58:02.220Z,96.2
2022-09-23T14:00:08.730Z,96.2
2022-09-23T14:02:12.256Z,96.1
2022-09-23T14:04:15.481Z,96.3
2022-09-23T14:06:33.524Z,97.1
2022-09-23T14:14:50.110Z,99.6
2022-09-23T14:16:53.489Z,99.6
2022-09-23T14:18:56.803Z,99.9
2022-09-23T14:21:00.084Z,99.9
2022-09-23T14:23:03.431Z,99.9
2022-09-23T14:25:06.755Z,99.9
2022-09-23T14:27:13.161Z,99.9
2022-09-23T14:33:23.318Z,99.9
2022-09-23T14:39:33.471Z,99.9
2022-09-23T14:41:40.001Z,99.9
2022-09-23T14:43:43.344Z,99.9
2022-09-23T14:45:46.775Z,99.9
2022-09-23T14:49:53.551Z,99.9
2022-09-23T14:51:56.850Z,99.9
2022-09-23T14:54:00.208Z,99.9
2022-09-23T14:56:06.696Z,99.9
2022-09-23T15:00:13.423Z,99.9
2022-09-23T15:01:16.872Z,99.9
2022-09-23T15:03:19.972Z,99.9
2022-09-23T15:05:23.330Z,99.9
2022-09-23T15:07:26.723Z,99.9
2022-09-23T15:09:33.231Z,99.9
2022-09-23T15:11:36.603Z,99.9
2022-09-23T15:13:39.996Z,99.9
2022-09-23T15:15:43.319Z,99.9
2022-09-23T15:17:46.770Z,99.9
2022-09-23T15:19:50.127Z,99.9
2022-09-23T15:21:53.524Z,99.9
2022-09-23T15:24:00.015Z,99.9
2022-09-23T15:26:03.498Z,99.9
2022-09-23T15:28:06.791Z,99.9
2022-09-23T15:30:14.579Z,99.9
2022-09-23T15:32:13.629Z,99.9
2022-09-23T15:34:17.048Z,99.9
2022-09-23T15:36:20.444Z,99.9
2022-09-23T15:44:37.210Z,99.9
2022-09-23T15:48:43.913Z,99.9
2022-09-23T15:52:53.898Z,99.9
2022-09-23T15:54:57.312Z,99.9
2022-09-23T15:57:00.744Z,99.9
2022-09-23T15:58:03.970Z,99.9
2022-09-23T16:00:07.390Z,99.9
2022-09-23T16:02:10.852Z,99.9
2022-09-23T16:04:14.239Z,99.9
2022-09-23T16:06:20.743Z,99.9
2022-09-23T16:08:24.190Z,99.9
2022-09-23T16:10:27.611Z,99.9
2022-09-23T16:12:31.046Z,99.9
2022-09-23T16:14:34.478Z,99.9
2022-09-23T16:18:41.336Z,99.9
2022-09-23T16:20:47.875Z,99.9
2022-09-23T16:24:54.759Z,99.9
2022-09-23T16:26:58.158Z,99.9
2022-09-23T16:31:05.086Z,99.9
2022-09-23T16:33:08.493Z,99.9
2022-09-23T16:35:14.987Z,99.9
2022-09-23T16:37:18.401Z,99.9
2022-09-23T16:39:21.829Z,99.9
2022-09-23T16:41:25.302Z,99.9
2022-09-23T16:43:28.755Z,99.9
2022-09-23T16:45:32.276Z,99.9
2022-09-23T16:47:35.600Z,99.9
2022-09-23T16:49:42.155Z,99.9
2022-09-23T16:51:45.631Z,99.9
2022-09-23T16:53:49.045Z,99.9
2022-09-23T16:54:52.290Z,99.9
2022-09-23T16:56:55.784Z,99.9
2022-09-23T17:01:02.805Z,99.9
2022-09-23T17:03:09.247Z,99.9
2022-09-23T17:05:12.664Z,99.9
2022-09-23T17:07:16.112Z,99.9
2022-09-23T17:09:19.576Z,99.9
2022-09-23T17:11:22.970Z,99.9
2022-09-23T17:13:26.467Z,99.9
2022-09-23T17:15:29.907Z,99.9
2022-09-23T17:19:39.950Z,99.9
2022-09-23T17:21:43.409Z,99.9
2022-09-23T17:23:46.857Z,99.9
2022-09-23T17:25:50.494Z,99.9
2022-09-23T17:27:53.775Z,99.9
2022-09-23T17:29:57.202Z,99.9
2022-09-23T17:40:17.699Z,99.9
2022-09-23T17:44:24.609Z,99.9
2022-09-23T17:46:31.160Z,99.9
2022-09-23T17:48:34.600Z,99.9
2022-09-23T17:50:38.095Z,99.9
2022-09-23T17:53:07.929Z,99.9
2022-09-23T17:57:14.835Z,99.9
2022-09-23T17:59:21.329Z,99.9
2022-09-23T18:01:24.891Z,99.9
2022-09-23T18:03:28.322Z,99.9
2022-09-23T18:05:31.771Z,99.9
2022-09-23T18:07:35.208Z,99.9
2022-09-23T18:09:38.654Z,99.9
2022-09-23T18:11:42.137Z,99.9
2022-09-23T18:13:48.701Z,99.9
2022-09-23T18:15:52.205Z,99.9
2022-09-23T18:17:55.628Z,99.9
2022-09-23T18:19:59.087Z,99.9
2022-09-23T18:22:02.574Z,99.9
2022-09-23T18:24:30.761Z,99.9
2022-09-23T18:32:22.952Z,99.9
2022-09-23T18:38:33.349Z,99.9
2022-09-23T18:40:36.853Z,99.9
2022-09-23T18:42:44.917Z,99.9
2022-09-23T18:44:48.364Z,99.9
2022-09-23T18:46:51.778Z,99.9
2022-09-23T18:47:55.046Z,99.9
2022-09-23T18:58:15.489Z,99.9
2022-09-23T19:00:18.960Z,99.9
2022-09-23T19:04:25.888Z,99.9
2022-09-23T19:06:29.372Z,99.9
2022-09-23T19:14:46.326Z,99.9
2022-09-23T19:18:53.289Z,99.9
2022-09-23T19:27:10.304Z,99.9
2022-09-23T19:29:13.786Z,99.9
2022-09-23T19:31:17.331Z,99.9
2022-09-23T19:33:20.757Z,99.9
2022-09-23T19:35:24.263Z,99.9
2022-09-23T19:37:27.741Z,99.9
2022-09-23T19:39:34.352Z,99.9
2022-09-23T19:41:37.807Z,99.9
2022-09-23T19:43:41.298Z,99.9
2022-09-23T19:44:44.585Z,99.9
2022-09-23T19:46:51.704Z,99.9
2022-09-23T19:48:51.589Z,99.9
2022-09-23T19:50:55.068Z,99.9
2022-09-23T19:53:01.623Z,99.9
2022-09-23T19:55:05.128Z,99.9
2022-09-23T19:57:08.606Z,99.9
2022-09-23T19:59:15.245Z,99.9
2022-09-23T20:01:15.715Z,99.9
2022-09-23T20:03:19.133Z,99.9
2022-09-23T20:05:22.639Z,99.9
2022-09-23T20:07:29.201Z,99.9
2022-09-23T20:09:32.705Z,99.9
2022-09-23T20:11:36.219Z,99.9
2022-09-23T20:13:39.725Z,99.9
2022-09-23T20:17:46.759Z,99.9
2022-09-23T20:19:50.230Z,99.9
2022-09-23T20:21:56.833Z,99.9
2022-09-23T20:24:00.536Z,99.9
2022-09-23T20:26:03.863Z,99.9
2022-09-23T20:32:14.432Z,99.9
2022-09-23T20:34:17.915Z,99.9
2022-09-23T20:36:24.506Z,99.9
2022-09-23T20:38:28.012Z,99.9
2022-09-23T20:40:31.607Z,99.9
2022-09-23T20:41:34.842Z,99.9
2022-09-23T20:43:38.342Z,99.9
2022-09-23T20:45:41.847Z,99.9
2022-09-23T20:47:45.405Z,99.9
2022-09-23T20:49:51.941Z,99.9
2022-09-23T20:51:55.470Z,99.9
2022-09-23T20:53:58.973Z,99.9
2022-09-23T20:56:02.672Z,99.9
2022-09-23T21:02:13.078Z,99.9
2022-09-23T21:04:19.644Z,99.9
2022-09-23T21:06:23.140Z,99.9
2022-09-23T21:08:26.704Z,99.9
2022-09-23T21:10:30.184Z,99.9
2022-09-23T21:12:33.692Z,99.9
2022-09-23T21:18:47.311Z,99.9
2022-09-23T21:22:54.333Z,99.9
2022-09-23T21:29:04.880Z,99.9
2022-09-23T21:31:08.435Z,99.9
2022-09-23T21:33:14.995Z,99.9
2022-09-23T21:35:18.489Z,99.9
2022-09-23T21:37:22.018Z,99.9
2022-09-23T21:39:45.787Z,99.9
2022-09-23T21:41:49.319Z,99.9
2022-09-23T21:43:52.819Z,99.9
2022-09-23T21:50:06.384Z,99.9
2022-09-23T21:52:09.901Z,99.9
2022-09-23T21:54:13.363Z,99.9
2022-09-23T21:56:20.293Z,99.9
2022-09-23T21:58:20.358Z,99.9
2022-09-23T22:00:26.969Z,99.9
2022-09-23T22:02:30.419Z,99.9
2022-09-23T22:04:34.021Z,99.9
2022-09-23T22:06:37.433Z,99.9
2022-09-23T22:08:40.912Z,99.9
2022-09-23T22:10:44.430Z,99.9
2022-09-23T22:12:47.886Z,99.9
2022-09-23T22:14:54.507Z,99.9
2022-09-23T22:16:57.989Z,99.9
2022-09-23T22:21:04.999Z,99.9
2022-09-23T22:27:15.467Z,99.9
2022-09-23T22:31:25.651Z,99.9
2022-09-23T22:34:49.123Z,99.9
2022-09-23T22:36:35.888Z,99.9
2022-09-23T22:38:39.408Z,99.9
2022-09-23T22:40:42.928Z,99.9
2022-09-23T22:42:49.453Z,99.9
2022-09-23T22:44:52.975Z,99.9
2022-09-23T22:46:56.546Z,99.9
2022-09-23T22:48:59.975Z,99.9
2022-09-23T22:51:03.465Z,99.9
2022-09-23T22:53:06.971Z,99.9
2022-09-23T22:57:17.082Z,99.9
2022-09-23T23:01:24.103Z,99.9
2022-09-23T23:07:34.588Z,99.9
2022-09-23T23:11:44.729Z,99.9
2022-09-23T23:13:48.200Z,99.9
2022-09-23T23:15:51.731Z,99.9
2022-09-23T23:17:55.230Z,99.9
2022-09-23T23:19:58.746Z,99.9
2022-09-23T23:24:05.822Z,99.9
2022-09-23T23:28:15.896Z,99.9
2022-09-23T23:30:19.386Z,99.9
2022-09-23T23:31:22.739Z,99.9
2022-09-23T23:33:26.164Z,99.9
2022-09-23T23:35:29.703Z,99.9
2022-09-23T23:37:33.197Z,99.9
2022-09-23T23:39:39.808Z,99.9
2022-09-23T23:41:43.316Z,99.9
2022-09-23T23:43:46.819Z,99.9
2022-09-23T23:45:50.334Z,99.9
2022-09-23T23:47:53.831Z,99.9
2022-09-23T23:49:57.333Z,99.9
2022-09-23T23:52:00.830Z,99.9
2022-09-23T23:54:07.458Z,99.9
2022-09-23T23:56:11.033Z,99.9
2022-09-23T23:58:14.524Z,99.9
